Time;durP1;ratioP1;P1;durP2;ratioP2;P2;SDS_P1;SDS_P2;PMS_P1;PMS_P2;Temp;Humidity;BMP_temperature;BMP_pressure;BME280_temperature;BME280_humidity;BME280_pressure;Samples;Min_cycle;Max_cycle;Signal;HPM_P1;HPM_P2
2023/01/03 00:01:31;;;;;;;23.95;9.65;;;;;;;6.54;100.00;102240.53;5113642;27;20031;-79
2023/01/03 00:03:57;;;;;;;33.88;10.15;;;;;;;6.63;100.00;102235.59;5115945;28;20035;-80
2023/01/03 00:06:32;;;;;;;23.65;10.68;;;;;;;6.60;100.00;102229.41;5115063;28;20043;-79
2023/01/03 00:08:58;;;;;;;24.08;10.45;;;;;;;6.60;100.00;102233.00;5136888;27;20458;-79
2023/01/03 00:14:15;;;;;;;31.42;12.13;;;;;;;6.43;100.00;102238.25;5136587;28;20204;-79
2023/01/03 00:16:41;;;;;;;29.75;11.60;;;;;;;6.28;100.00;102234.31;5086163;28;20027;-79
2023/01/03 00:19:11;;;;;;;28.35;12.38;;;;;;;6.33;100.00;102234.09;5094808;28;20032;-78
2023/01/03 00:21:37;;;;;;;41.80;13.02;;;;;;;6.28;100.00;102244.28;5095491;28;20034;-79
2023/01/03 00:24:03;;;;;;;27.42;12.98;;;;;;;6.27;100.00;102242.53;5097655;28;20036;-77
2023/01/03 00:26:29;;;;;;;31.45;13.23;;;;;;;6.23;100.00;102239.91;5110356;27;20123;-78
2023/01/03 00:28:55;;;;;;;37.13;13.80;;;;;;;6.11;100.00;102237.66;5120660;27;20043;-79
2023/01/03 00:31:23;;;;;;;28.27;13.90;;;;;;;6.14;100.00;102236.66;5119197;27;20038;-78
2023/01/03 00:33:49;;;;;;;41.13;13.88;;;;;;;6.07;100.00;102226.00;5102957;27;20486;-78
2023/01/03 00:36:15;;;;;;;32.13;13.25;;;;;;;6.16;100.00;102234.75;5120244;27;20045;-79
2023/01/03 00:38:40;;;;;;;30.60;13.45;;;;;;;6.20;100.00;102236.44;5121942;27;20031;-79
2023/01/03 00:41:14;;;;;;;24.67;11.98;;;;;;;6.08;100.00;102237.75;5100385;27;20067;-78
2023/01/03 00:43:41;;;;;;;33.35;14.57;;;;;;;6.18;100.00;102241.03;5117248;27;20036;-80
2023/01/03 00:46:10;;;;;;;34.17;14.88;;;;;;;6.18;100.00;102241.94;5098232;27;20424;-78
2023/01/03 00:48:35;;;;;;;32.80;12.50;;;;;;;6.09;100.00;102249.53;5104901;27;20514;-78
2023/01/03 00:51:26;;;;;;;40.22;15.15;;;;;;;6.22;100.00;102250.84;5119695;27;20067;-79
2023/01/03 00:53:54;;;;;;;34.60;15.38;;;;;;;6.19;100.00;102246.41;5127549;27;20043;-80
2023/01/03 00:56:22;;;;;;;41.00;15.20;;;;;;;6.12;100.00;102249.44;5125352;27;20533;-79
2023/01/03 00:58:48;;;;;;;34.20;14.48;;;;;;;6.04;100.00;102264.19;5121145;27;20071;-80
2023/01/03 01:01:21;;;;;;;35.90;14.27;;;;;;;6.02;100.00;102265.22;5137393;27;20038;-80
2023/01/03 01:03:50;;;;;;;34.00;14.60;;;;;;;6.06;100.00;102266.84;5120070;27;20023;-80
2023/01/03 01:06:30;;;;;;;36.42;14.43;;;;;;;5.93;100.00;102274.53;5120512;27;20498;-80
2023/01/03 01:08:57;;;;;;;39.40;15.30;;;;;;;5.97;100.00;102273.53;5104202;27;20023;-80
2023/01/03 01:11:23;;;;;;;37.45;14.32;;;;;;;5.91;100.00;102275.56;5112540;27;20038;-80
2023/01/03 01:13:50;;;;;;;39.47;15.85;;;;;;;5.92;100.00;102278.22;5088860;27;20114;-80
2023/01/03 01:16:19;;;;;;;31.35;14.80;;;;;;;5.79;100.00;102285.91;5137536;27;20039;-80
2023/01/03 01:18:46;;;;;;;36.42;15.70;;;;;;;5.80;100.00;102279.53;5103655;27;20034;-80
2023/01/03 01:21:17;;;;;;;32.85;15.02;;;;;;;5.70;100.00;102287.13;5112632;27;20040;-80
2023/01/03 01:23:44;;;;;;;35.83;15.75;;;;;;;5.76;100.00;102288.75;5120684;27;20156;-80
2023/01/03 01:26:12;;;;;;;32.88;14.43;;;;;;;5.75;100.00;102278.81;5119018;27;20027;-80
2023/01/03 01:28:38;;;;;;;43.58;15.88;;;;;;;5.82;100.00;102285.81;5120720;27;20493;-79
2023/01/03 01:31:05;;;;;;;46.20;16.15;;;;;;;5.99;100.00;102298.81;5091876;28;20039;-78
2023/01/03 01:33:33;;;;;;;37.40;14.88;;;;;;;5.84;100.00;102296.63;5139420;27;20051;-78
2023/01/03 01:36:08;;;;;;;39.38;16.58;;;;;;;5.92;100.00;102302.69;5115853;27;20035;-78
2023/01/03 01:38:34;;;;;;;43.30;15.90;;;;;;;5.94;100.00;102311.66;5120506;27;20512;-78
2023/01/03 01:40:59;;;;;;;35.75;15.30;;;;;;;5.87;100.00;102311.00;5136819;27;20027;-78
2023/01/03 01:46:31;;;;;;;40.97;15.88;;;;;;;5.76;100.00;102307.78;5117599;27;20058;-78
2023/01/03 01:49:02;;;;;;;39.00;16.45;;;;;;;5.77;100.00;102308.66;5119896;27;20027;-78
2023/01/03 01:51:31;;;;;;;37.95;15.43;;;;;;;5.71;100.00;102307.06;5100314;27;20645;-79
2023/01/03 01:53:59;;;;;;;29.60;14.23;;;;;;;5.72;100.00;102330.53;5119779;27;20117;-79
2023/01/03 01:56:33;;;;;;;37.92;15.10;;;;;;;5.72;100.00;102325.09;5137457;27;20083;-78
2023/01/03 01:58:59;;;;;;;45.13;16.15;;;;;;;5.68;100.00;102332.47;5138295;27;20027;-78
2023/01/03 02:01:25;;;;;;;39.55;15.70;;;;;;;5.63;100.00;102336.31;5134690;27;20446;-80
2023/01/03 02:04:00;;;;;;;36.10;14.05;;;;;;;5.62;100.00;102329.09;5135272;27;20458;-80
2023/01/03 02:06:26;;;;;;;38.85;15.35;;;;;;;5.50;100.00;102328.56;5133738;27;20107;-79
2023/01/03 02:08:51;;;;;;;31.33;15.30;;;;;;;5.53;100.00;102322.16;5136069;27;20034;-78
2023/01/03 02:11:35;;;;;;;40.85;16.42;;;;;;;5.53;100.00;102333.03;5137091;27;20031;-78
2023/01/03 02:14:21;;;;;;;41.42;16.48;;;;;;;5.55;100.00;102323.00;5120105;27;20058;-78
2023/01/03 02:17:22;;;;;;;41.47;16.63;;;;;;;5.50;100.00;102322.25;5118533;27;20033;-80
2023/01/03 02:20:02;;;;;;;38.63;17.10;;;;;;;5.45;100.00;102318.81;5074490;28;20033;-79
2023/01/03 02:23:05;;;;;;;44.28;17.10;;;;;;;5.50;100.00;102322.25;5113262;27;20039;-78
2023/01/03 02:25:45;;;;;;;44.38;17.25;;;;;;;5.50;100.00;102322.25;5119629;27;20030;-79
2023/01/03 02:28:30;;;;;;;44.95;17.17;;;;;;;5.48;100.00;102314.16;5118968;28;20495;-79
2023/01/03 02:31:02;;;;;;;35.97;15.18;;;;;;;5.45;100.00;102321.53;5107432;27;20038;-79
2023/01/03 02:33:58;;;;;;;45.63;15.80;;;;;;;5.38;100.00;102322.66;5118520;27;20051;-79
2023/01/03 02:36:38;;;;;;;39.15;15.43;;;;;;;5.39;100.00;102327.16;5125508;27;20063;-79
2023/01/03 02:39:20;;;;;;;32.80;15.13;;;;;;;5.17;100.00;102333.31;5137352;27;20103;-79
2023/01/03 02:42:56;;;;;;;34.00;15.48;;;;;;;5.13;100.00;102324.38;5137625;27;20042;-79
2023/01/03 02:44:49;;;;;;;35.90;16.00;;;;;;;5.14;100.00;102320.72;5137631;27;20035;-79
2023/01/03 02:47:18;;;;;;;40.55;16.13;;;;;;;5.20;100.00;102338.66;5122955;27;20058;-79
2023/01/03 02:49:50;;;;;;;53.58;17.02;;;;;;;5.14;100.00;102334.28;5112443;28;20036;-79
2023/01/03 02:52:20;;;;;;;35.95;16.17;;;;;;;5.19;100.00;102326.00;5119632;27;20057;-79
2023/01/03 02:54:55;;;;;;;48.13;16.33;;;;;;;5.15;100.00;102330.66;5118298;27;20118;-79
2023/01/03 02:57:26;;;;;;;39.58;16.33;;;;;;;5.17;100.00;102316.16;5132033;27;20501;-79
2023/01/03 03:00:23;;;;;;;44.35;15.55;;;;;;;5.28;100.00;102319.38;5113975;28;20435;-80
2023/01/03 03:02:53;;;;;;;41.28;15.45;;;;;;;5.13;100.00;102315.34;5128204;27;20414;-79
2023/01/03 03:05:25;;;;;;;41.72;15.15;;;;;;;5.08;100.00;102312.78;5136867;27;20060;-78
2023/01/03 03:07:51;;;;;;;45.90;15.13;;;;;;;5.02;100.00;102315.69;5137172;27;20034;-78
2023/01/03 03:13:12;;;;;;;42.72;15.05;;;;;;;5.05;100.00;102311.97;5136702;27;20023;-79
2023/01/03 03:16:03;;;;;;;33.63;15.05;;;;;;;5.05;100.00;102315.59;5135968;27;20027;-79
2023/01/03 03:18:44;;;;;;;41.97;15.48;;;;;;;5.12;100.00;102319.00;5098792;27;20126;-79
2023/01/03 03:26:52;;;;;;;43.30;14.68;;;;;;;4.92;100.00;102323.25;5117491;27;20027;-78
2023/01/03 03:29:18;;;;;;;46.75;14.52;;;;;;;4.92;100.00;102330.47;5101670;27;20031;-79
2023/01/03 03:31:48;;;;;;;39.03;14.88;;;;;;;4.92;100.00;102320.53;5136930;27;20050;-78
2023/01/03 03:34:17;;;;;;;44.22;15.02;;;;;;;4.88;100.00;102326.97;5119296;27;20035;-79
2023/01/03 03:36:52;;;;;;;32.88;14.95;;;;;;;4.86;100.00;102327.97;5099068;27;20031;-79
2023/01/03 03:45:01;;;;;;;30.23;14.50;;;;;;;4.75;100.00;102328.31;5126968;27;20035;-79
2023/01/03 03:48:01;;;;;;;39.88;13.82;;;;;;;4.78;100.00;102322.78;5137397;27;20028;-79
2023/01/03 03:50:50;;;;;;;46.53;14.70;;;;;;;4.86;100.00;102330.69;5133606;27;20027;-79
2023/01/03 03:53:19;;;;;;;42.10;14.60;;;;;;;4.87;100.00;102333.38;5102681;27;20039;-79
2023/01/03 03:55:50;;;;;;;38.70;15.05;;;;;;;4.90;100.00;102337.78;5115912;27;20023;-78
2023/01/03 03:58:22;;;;;;;37.30;14.95;;;;;;;4.75;100.00;102336.44;5118558;28;20092;-79
2023/01/03 04:00:50;;;;;;;35.28;13.77;;;;;;;4.88;100.00;102335.13;5115179;28;20023;-79
2023/01/03 04:03:19;;;;;;;37.47;15.65;;;;;;;4.91;100.00;102339.56;5117597;27;20027;-78
2023/01/03 04:06:09;;;;;;;35.10;14.93;;;;;;;4.82;100.00;102324.47;5090518;28;20032;-79
2023/01/03 04:08:35;;;;;;;39.45;14.35;;;;;;;4.81;100.00;102330.84;5118030;28;20059;-80
2023/01/03 04:11:06;;;;;;;37.67;14.52;;;;;;;4.74;100.00;102337.41;5099266;28;20846;-79
2023/01/03 04:13:34;;;;;;;40.25;13.65;;;;;;;4.81;100.00;102333.56;5133919;27;20038;-79
2023/01/03 04:15:59;;;;;;;35.30;13.93;;;;;;;4.71;100.00;102340.19;5117383;28;20087;-79
2023/01/03 04:18:25;;;;;;;35.38;13.82;;;;;;;4.73;100.00;102341.91;5116825;28;20431;-78
2023/01/03 04:20:50;;;;;;;30.42;14.60;;;;;;;4.70;100.00;102336.56;5116438;28;20059;-79
2023/01/03 04:23:16;;;;;;;55.50;14.88;;;;;;;4.68;100.00;102326.72;5116754;28;20035;-79
2023/01/03 04:25:42;;;;;;;42.05;15.10;;;;;;;4.68;100.00;102343.88;5135482;28;20057;-79
2023/01/03 04:28:07;;;;;;;40.47;15.98;;;;;;;4.74;100.00;102338.28;5100687;28;20031;-79
2023/01/03 04:30:33;;;;;;;48.42;15.25;;;;;;;4.71;100.00;102335.66;5135391;28;20031;-79
2023/01/03 04:33:03;;;;;;;31.52;14.65;;;;;;;4.71;100.00;102334.78;5099237;28;20071;-79
2023/01/03 04:35:29;;;;;;;33.50;15.55;;;;;;;4.72;100.00;102339.25;5136251;28;20124;-79
2023/01/03 04:37:56;;;;;;;41.05;14.45;;;;;;;4.76;100.00;102330.09;5116737;28;20027;-78
2023/01/03 04:40:21;;;;;;;41.10;15.25;;;;;;;4.81;100.00;102327.25;5115748;28;20023;-79
2023/01/03 04:45:30;;;;;;;35.17;15.32;;;;;;;4.68;100.00;102334.88;5135204;28;20486;-79
2023/01/03 04:47:56;;;;;;;37.38;14.18;;;;;;;4.68;100.00;102338.47;5117370;28;20038;-79
2023/01/03 04:50:21;;;;;;;40.15;14.65;;;;;;;4.83;100.00;102345.22;5136889;28;20095;-79
2023/01/03 04:52:47;;;;;;;42.75;15.50;;;;;;;4.95;100.00;102347.59;5095996;28;20039;-78
2023/01/03 04:55:12;;;;;;;48.13;15.55;;;;;;;4.70;100.00;102350.16;5130623;28;20455;-79
2023/01/03 04:57:37;;;;;;;34.65;13.80;;;;;;;4.85;100.00;102346.06;5100979;28;20031;-79
2023/01/03 05:00:04;;;;;;;31.73;13.55;;;;;;;4.86;100.00;102347.84;5135575;28;20038;-79
2023/01/03 05:02:29;;;;;;;47.33;16.00;;;;;;;4.80;100.00;102342.63;5116079;28;20019;-79
2023/01/03 05:04:54;;;;;;;34.95;14.05;;;;;;;4.69;100.00;102347.47;5080414;28;20046;-79
2023/01/03 05:07:20;;;;;;;46.08;14.70;;;;;;;4.81;100.00;102338.09;5115648;27;20035;-79
2023/01/03 05:09:45;;;;;;;39.25;13.18;;;;;;;4.83;100.00;102341.66;5098415;28;20039;-80
2023/01/03 05:12:11;;;;;;;41.53;14.75;;;;;;;4.73;100.00;102330.19;5113940;27;20367;-79
2023/01/03 05:14:40;;;;;;;39.03;13.73;;;;;;;4.71;100.00;102335.66;5118655;27;20035;-80
2023/01/03 05:17:08;;;;;;;45.15;15.93;;;;;;;4.71;100.00;102334.78;5104656;27;20035;-79
2023/01/03 05:19:34;;;;;;;40.25;15.05;;;;;;;4.69;100.00;102333.91;5139356;27;20051;-79
2023/01/03 05:27:30;;;;;;;42.47;15.65;;;;;;;4.83;100.00;102331.66;5119407;27;20494;-79
2023/01/03 05:29:55;;;;;;;43.13;15.27;;;;;;;4.94;100.00;102328.63;5139077;27;20092;-78
2023/01/03 05:32:22;;;;;;;44.35;15.70;;;;;;;5.15;100.00;102327.06;5101087;27;20059;-79
2023/01/03 05:34:48;;;;;;;41.15;15.02;;;;;;;5.08;100.00;102322.75;5139646;27;20031;-80
2023/01/03 05:37:13;;;;;;;48.53;15.68;;;;;;;5.02;100.00;102331.06;5101570;27;20065;-79
2023/01/03 05:39:39;;;;;;;36.25;15.65;;;;;;;5.05;100.00;102325.56;5136920;27;20042;-79
2023/01/03 05:42:04;;;;;;;37.33;14.32;;;;;;;5.03;100.00;102324.72;5120156;27;20034;-78
2023/01/03 05:44:32;;;;;;;40.78;13.55;;;;;;;5.08;100.00;102337.22;5103920;27;20379;-80
2023/01/03 05:46:59;;;;;;;37.90;14.30;;;;;;;5.05;100.00;102325.56;5115126;27;20031;-79
2023/01/03 05:49:25;;;;;;;30.50;13.32;;;;;;;5.00;100.00;102322.09;5118006;27;20379;-79
2023/01/03 05:51:50;;;;;;;29.67;12.98;;;;;;;5.01;100.00;102323.88;5104085;27;20038;-79
2023/01/03 05:54:18;;;;;;;37.45;13.75;;;;;;;5.05;100.00;102320.13;5120512;27;20047;-79
2023/01/03 05:56:43;;;;;;;50.67;13.20;;;;;;;5.06;100.00;102324.63;5119231;27;20103;-79
2023/01/03 05:59:09;;;;;;;38.60;13.68;;;;;;;5.06;100.00;102317.38;5121031;27;20027;-79
2023/01/03 06:01:35;;;;;;;51.53;14.57;;;;;;;5.05;100.00;102317.41;5107050;28;20035;-78
2023/01/03 06:04:00;;;;;;;31.30;13.60;;;;;;;5.01;100.00;102313.03;5115131;27;20035;-80
2023/01/03 06:06:26;;;;;;;33.83;13.50;;;;;;;5.12;100.00;102313.56;5119691;27;20106;-79
2023/01/03 06:08:53;;;;;;;33.08;13.55;;;;;;;5.10;100.00;102310.91;5139537;27;20034;-80
2023/01/03 06:11:19;;;;;;;33.67;13.15;;;;;;;5.10;100.00;102304.56;5139388;27;20119;-81
2023/01/03 06:13:44;;;;;;;41.30;14.07;;;;;;;5.12;100.00;102302.72;5139618;27;20074;-81
2023/01/03 06:19:01;;;;;;;35.08;12.88;;;;;;;5.14;100.00;102303.53;5140039;27;20367;-79
2023/01/03 06:21:26;;;;;;;30.02;13.35;;;;;;;5.11;100.00;102306.34;5120936;27;20058;-81
2023/01/03 06:23:52;;;;;;;34.95;14.20;;;;;;;5.06;100.00;102295.66;5103515;27;20039;-79
2023/01/03 06:26:20;;;;;;;40.15;14.52;;;;;;;5.09;100.00;102291.97;5104664;27;20046;-79
2023/01/03 06:28:45;;;;;;;41.83;13.80;;;;;;;5.15;100.00;102291.75;5141962;27;20038;-79
2023/01/03 06:31:11;;;;;;;45.03;14.85;;;;;;;5.31;100.00;102289.41;5105662;27;20039;-79
2023/01/03 06:33:38;;;;;;;31.92;14.60;;;;;;;5.41;100.00;102303.56;5121908;27;20047;-79
2023/01/03 06:36:06;;;;;;;31.83;14.98;;;;;;;5.35;100.00;102296.50;5113370;27;20043;-79
2023/01/03 06:38:32;;;;;;;35.97;15.73;;;;;;;5.51;100.00;102294.16;5138563;27;20041;-79
2023/01/03 06:40:58;;;;;;;30.48;13.82;;;;;;;5.45;100.00;102294.38;5101493;27;20094;-78
2023/01/03 06:43:24;;;;;;;46.13;14.73;;;;;;;5.60;100.00;102296.53;5119590;27;20091;-80
2023/01/03 06:54:06;;;;;;;33.72;13.75;;;;;;;5.73;100.00;102290.69;5137164;27;20027;-78
2023/01/03 06:56:32;;;;;;;32.85;15.13;;;;;;;5.70;100.00;102286.25;5118617;27;20031;-78
2023/01/03 06:58:57;;;;;;;40.42;15.77;;;;;;;5.85;100.00;102285.72;5119239;27;20042;-78
2023/01/03 07:01:23;;;;;;;42.40;15.77;;;;;;;5.79;100.00;102280.50;5102065;27;20091;-79
2023/01/03 07:03:49;;;;;;;38.70;15.20;;;;;;;5.84;100.00;102294.78;5100885;27;20057;-80
2023/01/03 07:06:14;;;;;;;37.03;15.35;;;;;;;5.87;100.00;102286.53;5117384;27;20111;-80
2023/01/03 07:08:39;;;;;;;37.17;15.68;;;;;;;5.91;100.00;102281.88;5099263;27;20049;-79
2023/01/03 07:11:05;;;;;;;38.03;16.85;;;;;;;6.01;100.00;102282.44;5098231;27;20489;-79
2023/01/03 07:16:16;;;;;;;42.38;16.77;;;;;;;6.20;100.00;102297.13;5118810;27;20437;-79
2023/01/03 07:18:42;;;;;;;36.17;15.95;;;;;;;6.13;100.00;102297.41;5118363;27;20039;-79
2023/01/03 07:21:08;;;;;;;43.42;16.17;;;;;;;6.17;100.00;102294.53;5119349;27;20058;-80
2023/01/03 07:23:34;;;;;;;30.00;15.90;;;;;;;6.17;100.00;102301.81;5119811;27;20027;-79
2023/01/03 07:25:59;;;;;;;42.50;17.05;;;;;;;6.21;100.00;102300.72;5135100;27;20510;-80
2023/01/03 07:28:25;;;;;;;38.42;15.95;;;;;;;6.38;100.00;102309.16;5115026;27;20043;-80
2023/01/03 07:30:50;;;;;;;40.08;14.90;;;;;;;6.24;100.00;102301.50;5102186;27;20041;-79
2023/01/03 07:33:17;;;;;;;33.33;15.85;;;;;;;6.22;100.00;102297.97;5100937;27;20050;-80
2023/01/03 07:35:43;;;;;;;42.58;15.80;;;;;;;6.29;100.00;102301.34;5083294;27;20031;-80
2023/01/03 07:38:10;;;;;;;37.60;15.77;;;;;;;6.31;100.00;102307.59;5118425;27;20027;-78
2023/01/03 07:40:36;;;;;;;41.03;17.00;;;;;;;6.25;100.00;102297.84;5136515;27;20466;-80
2023/01/03 07:45:46;;;;;;;37.60;15.30;;;;;;;6.33;100.00;102310.25;5140944;27;20394;-80
2023/01/03 07:48:12;;;;;;;36.30;15.68;;;;;;;6.36;100.00;102311.06;5100147;27;20027;-80
2023/01/03 07:50:38;;;;;;;36.53;16.35;;;;;;;6.37;100.00;102310.09;5100790;27;20031;-80
2023/01/03 07:53:06;;;;;;;38.63;17.65;;;;;;;6.46;100.00;102321.56;5119501;27;20042;-80
2023/01/03 07:55:33;;;;;;;39.65;16.77;;;;;;;6.60;100.00;102324.66;5137588;27;20039;-79
2023/01/03 07:57:59;;;;;;;39.75;15.20;;;;;;;6.50;100.00;102321.41;5137837;27;20099;-79
2023/01/03 08:00:24;;;;;;;37.38;16.50;;;;;;;6.55;100.00;102332.09;5118142;27;20058;-80
2023/01/03 08:02:54;;;;;;;44.88;17.35;;;;;;;6.62;100.00;102330.91;5118388;27;20039;-79
2023/01/03 08:05:21;;;;;;;40.13;15.95;;;;;;;6.55;100.00;102334.84;5097534;27;20023;-79
2023/01/03 08:07:48;;;;;;;39.88;15.55;;;;;;;6.53;100.00;102325.84;5116168;27;20035;-79
2023/01/03 08:13:17;;;;;;;36.30;14.85;;;;;;;6.50;100.00;102317.78;5133525;27;20035;-79
2023/01/03 08:15:54;;;;;;;34.05;15.25;;;;;;;6.62;100.00;102303.69;5099887;28;20062;-79
2023/01/03 08:18:23;;;;;;;33.92;13.93;;;;;;;6.57;100.00;102305.72;5114155;28;20039;-78
2023/01/03 08:20:48;;;;;;;40.10;15.38;;;;;;;6.56;100.00;102309.38;5107207;27;20089;-79
2023/01/03 08:23:14;;;;;;;34.53;14.88;;;;;;;6.58;100.00;102330.16;5082619;28;20036;-80
2023/01/03 08:25:39;;;;;;;39.47;16.20;;;;;;;6.59;100.00;102329.22;5133150;28;20156;-78
2023/01/03 08:28:06;;;;;;;36.03;15.50;;;;;;;6.71;100.00;102335.13;5100850;28;20486;-79
2023/01/03 08:30:36;;;;;;;49.30;15.63;;;;;;;6.68;100.00;102332.53;5116342;28;20035;-79
2023/01/03 08:33:02;;;;;;;39.13;14.18;;;;;;;6.88;100.00;102334.47;5095490;28;20050;-78
2023/01/03 08:35:33;;;;;;;40.72;15.65;;;;;;;6.93;100.00;102332.44;5110975;28;20039;-79
2023/01/03 08:38:01;;;;;;;39.47;15.48;;;;;;;6.88;100.00;102332.59;5110587;28;20019;-78
2023/01/03 08:40:27;;;;;;;50.28;15.30;;;;;;;6.75;100.00;102342.22;5114620;28;20024;-79
2023/01/03 08:42:55;;;;;;;42.15;14.52;;;;;;;6.70;100.00;102333.34;5080839;28;20081;-78
2023/01/03 08:45:21;;;;;;;41.35;15.10;;;;;;;6.71;100.00;102346.91;5095751;28;20031;-77
2023/01/03 08:47:46;;;;;;;51.78;15.75;;;;;;;6.73;100.00;102335.94;5099392;28;20464;-78
2023/01/03 08:50:13;;;;;;;41.70;14.80;;;;;;;6.78;100.00;102347.53;5100897;28;20043;-78
2023/01/03 08:52:38;;;;;;;42.72;15.13;;;;;;;6.79;100.00;102342.03;5101547;28;20032;-81
2023/01/03 08:55:04;;;;;;;53.22;17.88;;;;;;;6.85;100.00;102346.34;5100612;28;20039;-78
2023/01/03 08:57:30;;;;;;;38.30;15.88;;;;;;;6.96;100.00;102349.53;5101835;28;20032;-78
2023/01/03 08:59:55;;;;;;;40.03;16.05;;;;;;;6.81;100.00;102353.75;5100511;28;20028;-78
2023/01/03 09:02:21;;;;;;;44.50;16.98;;;;;;;6.88;100.00;102359.84;5099248;28;20078;-78
2023/01/03 09:04:46;;;;;;;67.68;15.63;;;;;;;6.88;100.00;102353.50;5081031;28;20395;-79
2023/01/03 09:07:12;;;;;;;48.97;17.00;;;;;;;6.79;100.00;102355.66;5064669;28;20039;-80
2023/01/03 09:09:37;;;;;;;45.53;16.25;;;;;;;6.79;100.00;102355.66;5115933;28;20092;-79
2023/01/03 09:12:03;;;;;;;46.28;16.60;;;;;;;6.89;100.00;102363.47;5096542;28;20043;-78
2023/01/03 09:14:29;;;;;;;56.55;16.50;;;;;;;6.96;100.00;102367.72;5118969;28;20035;-78
2023/01/03 09:16:54;;;;;;;39.30;15.52;;;;;;;6.92;100.00;102372.41;5119210;28;20032;-79
2023/01/03 09:19:23;;;;;;;45.28;16.70;;;;;;;6.99;100.00;102371.19;5100942;28;20032;-78
2023/01/03 09:21:48;;;;;;;43.50;16.65;;;;;;;6.99;100.00;102367.59;5117684;28;20023;-78
2023/01/03 09:24:14;;;;;;;44.90;16.75;;;;;;;7.02;100.00;102364.75;5100383;28;20460;-79
2023/01/03 09:26:39;;;;;;;49.00;16.95;;;;;;;7.08;100.00;102366.31;5079183;28;20036;-78
2023/01/03 09:29:04;;;;;;;38.22;15.15;;;;;;;7.01;100.00;102376.59;5080440;28;20064;-79
2023/01/03 09:31:33;;;;;;;40.40;14.95;;;;;;;7.12;100.00;102370.72;5103614;28;20079;-79
2023/01/03 09:34:04;;;;;;;44.10;16.15;;;;;;;7.27;100.00;102366.50;5083136;28;20078;-78
2023/01/03 09:36:30;;;;;;;42.42;16.38;;;;;;;7.42;100.00;102364.97;5114870;28;20097;-78
2023/01/03 09:38:55;;;;;;;39.15;14.73;;;;;;;7.43;100.00;102364.91;5115858;28;20081;-79
2023/01/03 09:41:23;;;;;;;38.25;15.52;;;;;;;7.40;100.00;102375.94;5111978;28;20080;-78
2023/01/03 09:43:57;;;;;;;47.33;14.30;;;;;;;7.43;100.00;102375.81;5117274;28;20031;-80
2023/01/03 09:46:24;;;;;;;43.40;15.38;;;;;;;7.53;100.00;102374.47;5117347;28;20019;-79
2023/01/03 09:48:51;;;;;;;42.40;14.65;;;;;;;7.47;100.00;102368.38;5117162;28;20026;-79
2023/01/03 10:05:36;;;;;;;29.27;12.23;;;;;;;7.78;100.00;102376.16;5106973;28;20148;-79
2023/01/03 10:08:33;;;;;;;40.55;13.02;;;;;;;7.76;100.00;102372.59;5108977;28;20056;-77
2023/01/03 10:11:04;;;;;;;38.65;12.45;;;;;;;7.71;100.00;102375.53;5115704;28;20038;-78
2023/01/03 10:13:55;;;;;;;33.78;13.13;;;;;;;7.75;100.00;102372.66;5118277;28;20043;-79
2023/01/03 10:16:52;;;;;;;32.25;11.23;;;;;;;7.76;100.00;102377.19;5116988;28;20479;-78
2023/01/03 10:19:39;;;;;;;46.22;12.45;;;;;;;7.98;100.00;102374.41;5097535;28;20027;-79
2023/01/03 10:22:11;;;;;;;44.90;12.70;;;;;;;7.93;100.00;102366.41;5116166;28;20038;-78
2023/01/03 10:24:49;;;;;;;25.00;9.98;;;;;;;7.96;100.00;102371.72;5097042;28;20024;-78
2023/01/03 10:27:22;;;;;;;34.80;12.10;;;;;;;8.02;100.00;102371.47;5099331;28;20019;-78
2023/01/03 10:29:54;;;;;;;30.92;10.63;;;;;;;8.08;100.00;102375.75;5099768;28;20032;-78
2023/01/03 10:32:19;;;;;;;41.97;10.73;;;;;;;8.18;100.00;102379.88;5116547;28;20042;-78
2023/01/03 10:35:01;;;;;;;29.77;11.05;;;;;;;8.20;100.00;102380.69;5116246;28;20479;-78
2023/01/03 10:37:29;;;;;;;31.33;10.75;;;;;;;8.14;100.00;102371.91;5111473;28;20394;-78
2023/01/03 10:40:04;;;;;;;37.25;10.90;;;;;;;8.28;100.00;102375.78;5100102;28;20066;-78
2023/01/03 10:42:33;;;;;;;26.48;11.13;;;;;;;8.26;100.00;102371.31;5117087;28;20034;-78
2023/01/03 10:45:02;;;;;;;33.35;11.25;;;;;;;8.33;100.00;102367.38;5113929;28;20019;-79
2023/01/03 10:47:28;;;;;;;32.45;10.75;;;;;;;8.34;100.00;102355.50;5117334;28;20436;-78
2023/01/03 10:50:01;;;;;;;27.55;10.40;;;;;;;8.28;100.00;102358.53;5098371;28;20126;-78
2023/01/03 10:52:32;;;;;;;27.48;10.70;;;;;;;8.33;100.00;102358.28;5117629;28;20035;-78
2023/01/03 10:55:10;;;;;;;32.20;10.32;;;;;;;8.49;100.00;102359.38;5117668;28;20490;-78
2023/01/03 10:57:58;;;;;;;23.80;9.30;;;;;;;8.31;100.00;102349.28;5115204;28;20038;-78
2023/01/03 11:00:25;;;;;;;30.83;9.98;;;;;;;8.57;100.00;102357.19;5116332;28;20061;-78
2023/01/03 11:02:52;;;;;;;33.78;10.27;;;;;;;8.62;100.00;102355.16;5115393;28;20127;-78
2023/01/03 11:05:21;;;;;;;26.73;9.32;;;;;;;8.61;100.00;102357.97;5115726;28;20035;-78
2023/01/03 11:07:58;;;;;;;22.50;9.73;;;;;;;8.66;100.00;102353.16;5116955;28;20035;-78
2023/01/03 11:10:47;;;;;;;28.20;9.35;;;;;;;8.75;100.00;102343.66;5116909;28;20039;-79
2023/01/03 11:13:36;;;;;;;24.00;8.02;;;;;;;8.86;100.00;102348.59;5116903;28;20031;-78
2023/01/03 11:16:11;;;;;;;27.98;8.48;;;;;;;8.96;100.00;102344.47;5114913;28;20038;-78
2023/01/03 11:18:36;;;;;;;37.97;8.27;;;;;;;8.99;100.00;102342.47;5116601;28;20390;-78
2023/01/03 11:21:22;;;;;;;26.27;9.18;;;;;;;9.04;100.00;102339.50;5112615;28;20036;-78
2023/01/03 11:24:20;;;;;;;29.77;7.93;;;;;;;8.92;100.00;102337.38;5096968;28;20028;-78
2023/01/03 11:27:07;;;;;;;26.15;8.63;;;;;;;8.94;100.00;102339.06;5110198;28;20497;-78
2023/01/03 11:29:48;;;;;;;29.05;9.20;;;;;;;8.92;100.00;102334.63;5116532;28;20042;-78
2023/01/03 11:32:23;;;;;;;29.50;8.45;;;;;;;8.98;100.00;102335.22;5114091;28;20537;-79
2023/01/03 11:35:00;;;;;;;19.88;8.75;;;;;;;9.01;100.00;102334.19;5116736;28;20499;-78
2023/01/03 11:38:08;;;;;;;26.80;8.85;;;;;;;9.07;100.00;102336.63;5116405;28;20035;-78
2023/01/03 11:40:55;;;;;;;29.02;9.88;;;;;;;9.15;100.00;102339.88;5115354;28;20024;-79
2023/01/03 11:43:36;;;;;;;26.02;9.88;;;;;;;9.14;100.00;102332.63;5115640;28;20039;-79
2023/01/03 11:46:02;;;;;;;27.33;9.18;;;;;;;9.23;100.00;102331.31;5115289;28;20491;-78
2023/01/03 11:48:40;;;;;;;25.42;8.82;;;;;;;9.28;100.00;102326.50;5115221;28;20031;-79
2023/01/03 11:51:40;;;;;;;23.50;8.00;;;;;;;9.09;100.00;102321.03;5115012;28;20099;-78
2023/01/03 11:54:06;;;;;;;29.38;8.65;;;;;;;9.19;100.00;102322.34;5101186;28;20035;-79
2023/01/03 11:56:42;;;;;;;21.52;7.90;;;;;;;9.07;100.00;102311.13;5115644;28;20041;-78
2023/01/03 11:59:40;;;;;;;34.50;9.45;;;;;;;9.30;100.00;102318.22;5116353;27;20106;-79
2023/01/03 12:02:08;;;;;;;20.08;7.70;;;;;;;9.22;100.00;102323.19;5117570;28;20482;-78
2023/01/03 12:05:05;;;;;;;22.05;8.40;;;;;;;9.14;100.00;102318.09;5115438;28;20032;-79
2023/01/03 12:07:52;;;;;;;23.08;8.07;;;;;;;9.17;100.00;102313.34;5116279;28;20042;-78
2023/01/03 12:10:26;;;;;;;20.92;7.53;;;;;;;9.18;100.00;102311.50;5115736;28;20076;-79
2023/01/03 12:12:57;;;;;;;27.70;7.15;;;;;;;9.24;100.00;102303.00;5116418;28;20058;-78
2023/01/03 12:15:46;;;;;;;16.70;5.88;;;;;;;9.24;100.00;102293.94;5115918;28;20040;-79
2023/01/03 12:18:45;;;;;;;22.70;7.32;;;;;;;9.34;100.00;102287.03;5100528;28;20463;-79
2023/01/03 12:21:14;;;;;;;16.15;5.50;;;;;;;9.30;100.00;102299.97;5094453;28;20067;-78
2023/01/03 12:23:47;;;;;;;14.95;4.85;;;;;;;9.36;100.00;102290.56;5099221;28;20399;-78
2023/01/03 12:26:15;;;;;;;14.68;6.03;;;;;;;9.36;100.00;102288.72;5098507;28;20047;-79
2023/01/03 12:29:15;;;;;;;22.13;5.65;;;;;;;9.54;100.00;102292.38;5099595;28;20456;-78